Time;durP1;ratioP1;P1;durP2;ratioP2;P2;SDS_P1;SDS_P2;PMS_P1;PMS_P2;Temp;Humidity;BMP_temperature;BMP_pressure;BME280_temperature;BME280_humidity;BME280_pressure;Samples;Min_cycle;Max_cycle;Signal;HPM_P1;HPM_P2
2022/09/16 00:00:19;;;;;;;12.73;2.80;;;;;;;25.15;55.28;97590.09;5053397;28;20541;-52
2022/09/16 00:02:45;;;;;;;9.85;3.15;;;;;;;25.07;55.03;97571.81;5055491;28;20192;-52
2022/09/16 00:05:11;;;;;;;10.32;2.95;;;;;;;24.99;56.37;97587.16;5055107;28;20185;-52
2022/09/16 00:07:37;;;;;;;10.90;2.83;;;;;;;24.46;57.13;97540.88;5055155;28;20282;-53
2022/09/16 00:10:03;;;;;;;9.88;2.92;;;;;;;24.83;57.00;97580.56;5055032;28;20188;-52
2022/09/16 00:12:29;;;;;;;11.88;3.00;;;;;;;24.91;56.37;97576.84;5054947;28;20252;-52
2022/09/16 00:14:55;;;;;;;13.25;2.80;;;;;;;24.82;56.36;97576.28;5055123;28;20682;-53
2022/09/16 00:17:21;;;;;;;9.75;2.80;;;;;;;24.68;57.67;97577.41;5054974;28;20311;-52
2022/09/16 00:19:48;;;;;;;10.90;3.30;;;;;;;24.72;57.79;97583.88;5054875;28;20173;-52
2022/09/16 00:22:13;;;;;;;10.13;2.53;;;;;;;24.69;57.07;97579.03;5055117;28;20177;-52
2022/09/16 00:24:39;;;;;;;11.50;3.13;;;;;;;24.65;57.94;97569.91;5055385;28;20183;-52
2022/09/16 00:27:04;;;;;;;12.45;3.03;;;;;;;24.58;58.35;97565.66;5055100;28;20177;-52
2022/09/16 00:29:30;;;;;;;11.68;3.03;;;;;;;24.34;59.85;97582.25;5054752;28;20169;-52
2022/09/16 00:31:55;;;;;;;6.70;2.55;;;;;;;23.85;62.20;97559.03;5054835;28;20196;-52
2022/09/16 00:34:21;;;;;;;8.43;2.65;;;;;;;23.95;62.66;97590.34;5054632;28;20665;-52
2022/09/16 00:36:46;;;;;;;10.07;2.67;;;;;;;23.73;64.14;97584.47;5054615;28;20176;-52
2022/09/16 00:39:12;;;;;;;11.25;3.17;;;;;;;23.60;65.69;97583.69;5054565;28;20637;-52
2022/09/16 00:41:37;;;;;;;11.63;2.70;;;;;;;23.56;66.17;97589.59;5054476;28;20165;-52
2022/09/16 00:44:05;;;;;;;9.65;2.80;;;;;;;23.72;65.64;97583.88;5054459;28;20231;-52
2022/09/16 00:46:34;;;;;;;4.82;2.65;;;;;;;23.80;65.42;97598.47;5054430;28;20669;-52
2022/09/16 00:49:04;;;;;;;13.48;2.55;;;;;;;23.32;66.94;97577.84;5054370;28;20173;-52
2022/09/16 00:51:30;;;;;;;5.45;2.63;;;;;;;23.34;67.24;97586.41;5054962;28;20220;-52
2022/09/16 00:54:04;;;;;;;9.10;2.97;;;;;;;23.46;66.80;97597.13;5054285;28;20169;-52
2022/09/16 00:56:35;;;;;;;7.88;2.45;;;;;;;23.51;66.99;97597.34;5054532;28;20157;-52
2022/09/16 00:59:16;;;;;;;10.95;3.50;;;;;;;23.28;66.62;97549.44;5054485;28;20169;-52
2022/09/16 01:01:43;;;;;;;7.38;2.17;;;;;;;23.57;67.14;97597.34;5054426;28;20176;-52
2022/09/16 01:04:31;;;;;;;6.40;2.78;;;;;;;23.37;68.35;97608.94;5054084;28;20173;-53
2022/09/16 01:06:57;;;;;;;17.52;2.38;;;;;;;23.47;67.46;97601.38;5053958;28;20705;-52
2022/09/16 01:09:24;;;;;;;5.85;2.25;;;;;;;23.31;68.08;97601.84;5054233;28;20184;-52
2022/09/16 01:11:50;;;;;;;5.18;2.35;;;;;;;23.26;67.31;97609.53;5053857;28;20201;-52
2022/09/16 01:17:07;;;;;;;7.80;2.50;;;;;;;23.29;65.99;97617.88;5054268;28;20184;-52
2022/09/16 01:20:07;;;;;;;8.93;2.55;;;;;;;23.35;65.23;97616.22;5053840;28;20205;-52
2022/09/16 01:23:09;;;;;;;8.57;2.58;;;;;;;23.30;65.15;97616.84;5054002;28;20170;-52
2022/09/16 01:25:53;;;;;;;7.25;2.45;;;;;;;23.29;61.77;97624.97;5053731;28;20160;-52
2022/09/16 01:28:35;;;;;;;7.45;2.05;;;;;;;23.29;59.86;97628.44;5053634;28;20161;-52
2022/09/16 01:31:08;;;;;;;6.80;2.42;;;;;;;23.25;58.53;97624.56;5053512;28;20192;-52
2022/09/16 01:33:54;;;;;;;5.47;1.75;;;;;;;23.28;57.56;97629.44;5052283;28;20177;-52
2022/09/16 01:36:50;;;;;;;7.63;2.53;;;;;;;23.25;57.75;97629.84;5053815;28;20157;-52
2022/09/16 01:39:21;;;;;;;9.18;1.90;;;;;;;23.20;57.65;97626.19;5053599;28;20192;-52
2022/09/16 01:42:00;;;;;;;7.75;2.25;;;;;;;23.09;57.94;97624.13;5053360;28;20757;-52
2022/09/16 01:44:38;;;;;;;7.13;1.88;;;;;;;23.03;57.98;97617.03;5053277;28;20257;-52
2022/09/16 01:47:24;;;;;;;7.47;1.75;;;;;;;23.01;58.19;97617.22;5053274;28;20553;-52
2022/09/16 01:49:59;;;;;;;8.20;2.17;;;;;;;22.76;58.79;97607.44;5053087;28;20734;-52
2022/09/16 01:52:33;;;;;;;7.45;2.20;;;;;;;22.72;59.31;97625.50;5053278;28;20275;-51
2022/09/16 01:55:05;;;;;;;5.35;1.95;;;;;;;22.69;59.38;97611.88;5053386;28;20248;-51
2022/09/16 01:57:45;;;;;;;6.05;2.05;;;;;;;22.61;60.16;97614.72;5053151;28;20170;-52
2022/09/16 02:00:13;;;;;;;8.95;1.90;;;;;;;22.36;60.22;97579.31;5053096;28;20244;-51
2022/09/16 02:02:48;;;;;;;4.60;1.38;;;;;;;22.50;60.35;97595.00;5052917;28;20252;-52
2022/09/16 02:05:20;;;;;;;8.00;2.00;;;;;;;22.46;60.07;97606.16;5052851;28;20211;-52
2022/09/16 02:07:57;;;;;;;11.07;2.30;;;;;;;22.48;59.82;97598.84;5052908;28;20203;-51
2022/09/16 02:10:30;;;;;;;10.73;2.15;;;;;;;22.54;60.16;97598.06;5053004;28;20564;-51
2022/09/16 02:13:03;;;;;;;7.00;1.70;;;;;;;22.27;60.02;97565.50;5052763;28;20226;-51
2022/09/16 02:15:31;;;;;;;9.73;1.90;;;;;;;22.46;60.33;97599.06;5053009;28;20222;-51
2022/09/16 02:18:05;;;;;;;10.05;1.85;;;;;;;22.34;60.74;97576.06;5052674;28;20204;-51
2022/09/16 02:20:34;;;;;;;11.52;2.45;;;;;;;22.36;60.65;97589.84;5052727;28;20161;-51
2022/09/16 02:23:13;;;;;;;13.05;2.33;;;;;;;22.36;60.37;97585.41;5051961;28;20169;-51
2022/09/16 02:25:43;;;;;;;6.35;2.15;;;;;;;22.38;60.40;97588.66;5052856;28;20248;-52
2022/09/16 02:28:16;;;;;;;10.43;2.15;;;;;;;22.42;59.97;97589.06;5052580;28;20154;-52
2022/09/16 02:30:47;;;;;;;6.43;1.70;;;;;;;22.39;59.64;97590.31;5052687;28;20193;-52
2022/09/16 02:33:15;;;;;;;7.00;2.08;;;;;;;22.47;60.13;97595.41;5052443;28;20157;-51
2022/09/16 02:35:46;;;;;;;8.32;2.15;;;;;;;22.44;60.04;97600.28;5052356;28;20203;-52
2022/09/16 02:38:28;;;;;;;8.90;2.50;;;;;;;22.36;60.00;97605.69;5052405;28;20542;-52
2022/09/16 02:40:56;;;;;;;8.88;2.42;;;;;;;22.36;60.38;97614.41;5052378;28;20211;-52
2022/09/16 02:43:24;;;;;;;8.73;2.45;;;;;;;22.35;60.78;97620.69;5052234;28;20201;-52
2022/09/16 02:46:07;;;;;;;9.43;2.10;;;;;;;22.30;60.98;97617.84;5052193;28;20230;-51
2022/09/16 02:49:02;;;;;;;5.20;1.70;;;;;;;22.27;61.07;97623.50;5052796;28;20161;-52
2022/09/16 02:51:42;;;;;;;4.45;1.70;;;;;;;22.21;61.41;97634.81;5052545;28;20188;-51
2022/09/16 02:54:23;;;;;;;9.45;2.03;;;;;;;22.16;61.39;97636.44;5052119;28;20169;-51
2022/09/16 02:56:49;;;;;;;6.90;1.88;;;;;;;22.11;61.22;97638.84;5052338;28;20240;-51
2022/09/16 02:59:16;;;;;;;9.73;2.33;;;;;;;22.13;61.33;97642.91;5052017;28;20677;-51
2022/09/16 03:01:43;;;;;;;9.43;1.73;;;;;;;22.17;61.08;97635.41;5051998;28;20169;-52
2022/09/16 03:04:11;;;;;;;8.25;2.58;;;;;;;22.17;60.83;97640.69;5052012;28;20169;-52
2022/09/16 03:06:38;;;;;;;7.22;1.70;;;;;;;22.24;60.35;97633.63;5051788;28;20208;-52
2022/09/16 03:09:06;;;;;;;10.05;2.10;;;;;;;22.32;59.54;97646.66;5051905;28;20165;-52
2022/09/16 03:11:50;;;;;;;11.18;2.17;;;;;;;22.35;59.26;97635.69;5052068;28;20200;-52
2022/09/16 03:14:27;;;;;;;8.35;2.75;;;;;;;22.47;58.49;97642.03;5051925;28;20187;-52
2022/09/16 03:16:52;;;;;;;8.27;2.05;;;;;;;22.53;57.75;97649.16;5052133;28;20172;-52
2022/09/16 03:19:32;;;;;;;10.65;2.30;;;;;;;22.59;58.52;97646.56;5052239;28;20172;-51
2022/09/16 03:22:04;;;;;;;5.03;1.70;;;;;;;22.66;58.04;97643.97;5052065;28;20548;-52
2022/09/16 03:24:35;;;;;;;8.63;1.90;;;;;;;22.60;58.26;97642.13;5052094;28;20173;-51
2022/09/16 03:27:08;;;;;;;6.22;2.08;;;;;;;22.49;58.71;97637.41;5051709;28;20177;-51
2022/09/16 03:29:51;;;;;;;10.43;2.50;;;;;;;22.45;59.12;97636.16;5051726;28;20252;-51
2022/09/16 03:32:24;;;;;;;7.35;1.77;;;;;;;22.34;59.88;97639.34;5051576;28;20211;-51
2022/09/16 03:34:55;;;;;;;6.53;1.92;;;;;;;22.21;60.36;97628.75;5054606;28;20607;-51
2022/09/16 03:37:22;;;;;;;10.43;2.40;;;;;;;21.98;61.15;97618.50;5055798;28;20165;-51
2022/09/16 03:39:56;;;;;;;5.68;1.73;;;;;;;21.85;61.45;97612.38;5055564;28;20737;-51
2022/09/16 03:42:22;;;;;;;6.75;2.17;;;;;;;21.89;61.82;97618.84;5055669;28;20166;-51
2022/09/16 03:44:47;;;;;;;4.05;1.85;;;;;;;21.78;62.34;97622.84;5056315;28;20534;-51
2022/09/16 03:47:14;;;;;;;9.10;2.00;;;;;;;21.77;62.84;97628.31;5055802;28;20169;-51
2022/09/16 03:49:39;;;;;;;9.18;2.17;;;;;;;21.77;62.42;97625.69;5055505;28;20534;-51
2022/09/16 03:52:05;;;;;;;7.82;2.00;;;;;;;21.81;62.16;97614.59;5055348;28;20296;-51
2022/09/16 03:54:31;;;;;;;7.60;1.65;;;;;;;21.86;61.81;97620.06;5055446;28;20173;-51
2022/09/16 03:56:57;;;;;;;8.35;1.98;;;;;;;21.93;60.48;97609.56;5055262;28;20263;-51
2022/09/16 03:59:22;;;;;;;9.07;2.28;;;;;;;22.01;60.52;97606.75;5055604;28;20204;-51
2022/09/16 04:01:48;;;;;;;8.73;2.05;;;;;;;22.07;60.55;97605.97;5055726;28;20170;-51
2022/09/16 04:04:13;;;;;;;8.52;2.30;;;;;;;22.08;60.74;97605.78;5055443;28;20169;-51
2022/09/16 04:06:39;;;;;;;4.47;1.75;;;;;;;22.13;60.85;97605.19;5055019;28;20212;-52
2022/09/16 04:09:06;;;;;;;7.50;2.60;;;;;;;22.04;61.21;97598.47;5055098;28;20681;-51
2022/09/16 04:11:33;;;;;;;8.73;1.80;;;;;;;22.06;61.06;97599.91;5054984;28;20705;-51
2022/09/16 04:13:59;;;;;;;7.88;3.08;;;;;;;22.16;60.63;97604.81;5055033;28;20180;-51
2022/09/16 04:16:26;;;;;;;9.00;2.47;;;;;;;22.08;60.79;97608.41;5054998;28;20177;-51
2022/09/16 04:18:51;;;;;;;11.68;2.25;;;;;;;22.09;61.00;97609.25;5054926;28;20180;-51
2022/09/16 04:21:17;;;;;;;7.65;2.03;;;;;;;22.03;60.94;97607.41;5054997;28;20169;-51
2022/09/16 04:23:43;;;;;;;6.25;2.17;;;;;;;22.05;60.59;97608.00;5055103;28;20602;-51
2022/09/16 04:26:09;;;;;;;9.10;2.20;;;;;;;21.97;61.00;97606.34;5054768;28;20173;-51
2022/09/16 04:28:36;;;;;;;7.70;1.70;;;;;;;22.07;60.53;97621.78;5054758;28;20242;-51
2022/09/16 04:31:07;;;;;;;9.15;2.55;;;;;;;22.09;60.67;97617.16;5055024;28;20197;-51
2022/09/16 04:33:34;;;;;;;6.85;1.63;;;;;;;22.10;60.33;97613.50;5054630;28;20176;-51
2022/09/16 04:36:02;;;;;;;8.68;1.98;;;;;;;22.16;60.25;97620.63;5054628;28;20177;-51
2022/09/16 04:38:28;;;;;;;9.43;2.83;;;;;;;22.06;60.18;97605.19;5054572;28;20177;-51
2022/09/16 04:40:59;;;;;;;10.18;2.72;;;;;;;22.17;60.49;97611.69;5054532;28;20223;-51
2022/09/16 04:43:25;;;;;;;6.93;2.20;;;;;;;22.22;60.62;97609.28;5054775;28;20173;-51
2022/09/16 04:45:50;;;;;;;12.52;2.20;;;;;;;22.21;60.51;97608.47;5053953;28;20268;-51
2022/09/16 04:48:16;;;;;;;13.18;2.38;;;;;;;22.19;60.16;97604.41;5054371;28;20227;-51
2022/09/16 04:50:42;;;;;;;8.93;1.92;;;;;;;22.20;60.33;97611.31;5054229;28;20179;-51
2022/09/16 04:53:07;;;;;;;8.75;1.70;;;;;;;22.14;60.62;97601.56;5054260;28;20181;-51
2022/09/16 04:55:33;;;;;;;10.18;2.25;;;;;;;22.17;60.67;97615.16;5054261;28;20172;-51
2022/09/16 04:57:59;;;;;;;12.93;2.65;;;;;;;22.20;60.49;97616.59;5054455;28;20180;-51
2022/09/16 05:00:25;;;;;;;7.45;1.95;;;;;;;22.14;61.04;97605.00;5054459;28;20599;-51
2022/09/16 05:02:53;;;;;;;7.78;1.80;;;;;;;22.18;60.26;97608.03;5054111;28;20716;-52
2022/09/16 05:05:19;;;;;;;4.85;2.28;;;;;;;22.35;59.89;97611.97;5053835;28;20193;-51
2022/09/16 05:07:44;;;;;;;10.82;2.60;;;;;;;22.46;59.04;97624.59;5053961;28;20197;-52
2022/09/16 05:10:10;;;;;;;7.85;2.15;;;;;;;22.44;59.54;97627.44;5054215;28;20188;-52
2022/09/16 05:12:36;;;;;;;4.65;2.08;;;;;;;22.49;59.95;97613.69;5053895;28;20203;-52
2022/09/16 05:15:02;;;;;;;7.07;2.58;;;;;;;22.52;59.84;97615.91;5054147;28;20173;-53
2022/09/16 05:17:30;;;;;;;7.10;2.03;;;;;;;22.42;60.13;97618.06;5054220;28;20646;-52
2022/09/16 05:19:56;;;;;;;7.22;2.70;;;;;;;22.48;59.99;97619.94;5053970;28;20275;-52
2022/09/16 05:22:22;;;;;;;8.38;2.08;;;;;;;22.51;59.40;97616.91;5053697;28;20178;-52
2022/09/16 05:24:48;;;;;;;7.28;2.17;;;;;;;22.56;59.37;97604.75;5053728;28;20173;-52
2022/09/16 05:27:14;;;;;;;11.05;2.55;;;;;;;22.68;59.01;97610.28;5053616;28;20187;-52
2022/09/16 05:29:39;;;;;;;7.55;2.28;;;;;;;22.75;58.66;97611.91;5053658;28;20184;-52
2022/09/16 05:32:05;;;;;;;13.55;2.30;;;;;;;22.90;57.72;97617.00;5053537;28;20204;-52
2022/09/16 05:34:30;;;;;;;9.00;2.03;;;;;;;22.99;58.08;97623.69;5053791;28;20209;-52
2022/09/16 05:36:56;;;;;;;7.13;1.98;;;;;;;23.05;58.24;97629.00;5053534;28;20177;-52
2022/09/16 05:39:22;;;;;;;11.75;2.08;;;;;;;23.13;57.86;97626.16;5053398;28;20569;-52
2022/09/16 05:41:49;;;;;;;7.88;2.40;;;;;;;23.32;57.20;97633.28;5053466;28;20208;-52
2022/09/16 05:44:14;;;;;;;10.25;2.00;;;;;;;23.35;57.06;97632.06;5053318;28;20174;-51
2022/09/16 05:46:40;;;;;;;2.47;1.60;;;;;;;23.31;57.42;97625.59;5053257;28;20563;-52
2022/09/16 05:49:09;;;;;;;6.50;2.00;;;;;;;23.33;57.48;97620.91;5053508;28;20274;-52
2022/09/16 05:51:37;;;;;;;8.32;2.08;;;;;;;23.37;57.49;97622.13;5053145;28;20212;-52
2022/09/16 05:54:02;;;;;;;5.00;1.95;;;;;;;23.41;57.59;97613.59;5051875;28;20549;-52
2022/09/16 05:56:30;;;;;;;6.55;2.10;;;;;;;23.47;57.10;97598.75;5052816;28;20203;-52
2022/09/16 05:58:59;;;;;;;6.15;1.98;;;;;;;23.62;56.87;97599.34;5052331;28;20192;-52
2022/09/16 06:01:27;;;;;;;7.75;1.55;;;;;;;23.61;56.63;97592.44;5053251;28;20208;-52
2022/09/16 06:03:53;;;;;;;6.35;2.30;;;;;;;23.73;56.55;97597.69;5053239;28;20181;-52
2022/09/16 06:06:34;;;;;;;8.07;2.35;;;;;;;23.72;56.54;97605.03;5052997;28;20276;-52
2022/09/16 06:09:05;;;;;;;11.32;1.98;;;;;;;23.78;56.55;97595.25;5053034;28;20185;-52
2022/09/16 06:11:30;;;;;;;11.85;2.30;;;;;;;23.90;56.35;97603.38;5053061;28;20193;-52
2022/09/16 06:14:01;;;;;;;8.35;2.20;;;;;;;23.92;56.09;97602.13;5052766;28;20226;-52
2022/09/16 06:16:30;;;;;;;8.43;2.08;;;;;;;23.96;56.00;97602.53;5053173;28;20169;-52
2022/09/16 06:18:56;;;;;;;6.22;2.05;;;;;;;24.14;55.19;97590.28;5052929;28;20582;-52
2022/09/16 06:21:22;;;;;;;15.02;2.30;;;;;;;24.34;54.63;97584.91;5052371;28;20309;-52
2022/09/16 06:23:48;;;;;;;8.98;2.60;;;;;;;24.43;54.13;97589.72;5052540;28;20260;-52
2022/09/16 06:26:16;;;;;;;8.70;2.30;;;;;;;24.68;53.17;97590.63;5052877;28;20176;-52
2022/09/16 06:28:43;;;;;;;6.53;1.92;;;;;;;24.78;52.84;97588.31;5052538;28;20177;-52
2022/09/16 06:31:14;;;;;;;6.28;2.38;;;;;;;24.89;52.69;97590.28;5052586;28;20690;-52
2022/09/16 06:33:39;;;;;;;9.55;2.40;;;;;;;25.00;52.38;97589.59;5052401;28;20177;-52
2022/09/16 06:36:15;;;;;;;9.75;2.28;;;;;;;25.23;51.66;97595.13;5052647;28;20181;-52
2022/09/16 06:38:40;;;;;;;8.35;2.53;;;;;;;25.31;51.53;97597.50;5052658;28;20530;-52
2022/09/16 06:41:09;;;;;;;9.52;2.25;;;;;;;25.49;51.21;97597.56;5052383;28;20180;-52
2022/09/16 06:43:35;;;;;;;5.95;1.88;;;;;;;25.59;51.03;97597.09;5052341;28;20236;-52
2022/09/16 06:46:12;;;;;;;7.15;2.17;;;;;;;25.68;51.11;97596.56;5052233;28;20185;-52
2022/09/16 06:48:40;;;;;;;9.30;2.25;;;;;;;25.73;51.00;97582.66;5052485;28;20244;-52
2022/09/16 06:51:09;;;;;;;12.90;2.90;;;;;;;25.82;50.66;97582.13;5052703;28;20212;-52
2022/09/16 06:53:34;;;;;;;9.18;2.30;;;;;;;25.87;50.26;97578.81;5052147;28;20705;-52
2022/09/16 06:56:05;;;;;;;8.60;2.55;;;;;;;25.91;50.16;97574.72;5052076;28;20264;-52
2022/09/16 06:58:33;;;;;;;7.82;2.13;;;;;;;26.05;49.82;97587.63;5051999;28;20219;-52
2022/09/16 07:00:58;;;;;;;13.00;2.40;;;;;;;26.13;49.68;97581.22;5052161;28;20173;-52
2022/09/16 07:03:24;;;;;;;12.00;3.13;;;;;;;26.17;49.32;97582.34;5052053;28;20173;-52
2022/09/16 07:06:03;;;;;;;6.20;2.05;;;;;;;26.29;48.66;97591.22;5051959;28;20232;-52
2022/09/16 07:08:30;;;;;;;9.55;2.53;;;;;;;26.47;48.92;97583.22;5051584;28;20192;-52
2022/09/16 07:10:58;;;;;;;9.23;2.22;;;;;;;26.61;49.13;97579.38;5050605;28;20204;-52
2022/09/16 07:13:24;;;;;;;9.27;2.00;;;;;;;26.73;48.43;97580.22;5051848;28;20177;-52
2022/09/16 07:15:50;;;;;;;10.95;2.40;;;;;;;26.79;47.24;97598.72;5051869;28;20322;-52
2022/09/16 07:18:15;;;;;;;15.13;3.35;;;;;;;26.93;49.85;97592.16;5051816;28;20573;-52
2022/09/16 07:20:40;;;;;;;15.05;3.03;;;;;;;27.07;50.49;97604.22;5051938;28;20174;-52
2022/09/16 07:23:06;;;;;;;15.30;3.45;;;;;;;27.20;51.61;97619.97;5051829;28;20604;-52
2022/09/16 07:25:31;;;;;;;11.85;3.95;;;;;;;27.34;53.57;97631.19;5051861;28;20663;-52
2022/09/16 07:27:57;;;;;;;12.55;3.30;;;;;;;27.35;54.04;97632.81;5052023;28;20181;-52
2022/09/16 07:30:22;;;;;;;15.48;4.25;;;;;;;27.34;55.41;97636.50;5051760;28;20284;-52
2022/09/16 07:32:48;;;;;;;15.10;4.13;;;;;;;27.34;55.23;97637.31;5051624;28;20193;-52
2022/09/16 07:35:13;;;;;;;11.73;4.40;;;;;;;27.30;55.98;97628.16;5051690;28;20181;-52
2022/09/16 07:37:38;;;;;;;14.48;4.50;;;;;;;27.31;56.12;97626.31;5051797;28;20179;-52
2022/09/16 07:40:04;;;;;;;12.02;4.40;;;;;;;27.30;56.39;97625.50;5051763;28;20177;-53
2022/09/16 07:42:30;;;;;;;16.30;5.13;;;;;;;27.32;56.52;97628.75;5051920;28;20177;-52
2022/09/16 07:44:56;;;;;;;20.42;4.60;;;;;;;27.28;56.41;97619.63;5051562;28;20715;-52
2022/09/16 07:47:22;;;;;;;16.27;4.32;;;;;;;27.29;56.71;97613.25;5051845;28;20189;-52
2022/09/16 07:49:47;;;;;;;25.80;4.90;;;;;;;27.44;57.05;97620.78;5051983;28;20185;-53
2022/09/16 07:52:13;;;;;;;24.50;4.45;;;;;;;27.50;56.17;97615.38;5051740;28;20326;-53
2022/09/16 07:54:39;;;;;;;21.42;4.65;;;;;;;27.51;55.46;97613.53;5051799;28;20199;-52
2022/09/16 07:57:04;;;;;;;16.73;4.53;;;;;;;27.46;55.20;97603.56;5051700;28;20634;-52
2022/09/16 07:59:29;;;;;;;22.77;5.47;;;;;;;27.48;56.10;97613.97;5051526;28;20179;-53
2022/09/16 08:01:55;;;;;;;22.23;4.97;;;;;;;27.52;56.56;97610.63;5051568;28;20231;-53
2022/09/16 08:04:20;;;;;;;24.17;4.78;;;;;;;27.58;56.90;97612.34;5051449;28;20181;-53
2022/09/16 08:06:46;;;;;;;27.40;5.68;;;;;;;27.63;56.89;97595.75;5051235;28;20208;-52
2022/09/16 08:09:13;;;;;;;26.58;5.32;;;;;;;27.70;56.90;97610.50;5051563;28;20188;-53
2022/09/16 08:11:39;;;;;;;28.77;6.00;;;;;;;27.76;56.83;97600.81;5051562;28;20282;-53
2022/09/16 08:14:04;;;;;;;22.80;5.85;;;;;;;27.89;56.40;97603.25;5051612;28;20252;-53
2022/09/16 08:16:30;;;;;;;21.90;5.40;;;;;;;27.97;55.97;97613.50;5051325;28;20172;-53
2022/09/16 08:18:57;;;;;;;15.18;4.57;;;;;;;28.04;55.35;97606.25;5051506;28;20181;-52
2022/09/16 08:21:25;;;;;;;25.38;4.80;;;;;;;28.14;54.91;97614.41;5053471;28;20187;-53
2022/09/16 08:23:51;;;;;;;13.43;4.47;;;;;;;28.15;54.77;97608.84;5054840;28;20181;-52
2022/09/16 08:26:18;;;;;;;19.13;5.32;;;;;;;28.25;54.56;97614.41;5054839;28;20173;-53
2022/09/16 08:28:45;;;;;;;28.25;5.60;;;;;;;28.27;54.20;97600.88;5055010;28;20234;-53
2022/09/16 08:31:11;;;;;;;19.10;5.20;;;;;;;28.31;54.26;97602.00;5054922;28;20212;-52
2022/09/16 08:33:39;;;;;;;28.30;5.18;;;;;;;28.39;53.97;97609.66;5054978;28;20593;-52
2022/09/16 08:36:10;;;;;;;17.92;5.20;;;;;;;28.34;53.77;97586.34;5055474;28;20177;-53
2022/09/16 08:38:36;;;;;;;17.23;5.28;;;;;;;28.49;53.51;97600.00;5054686;28;20554;-52
2022/09/16 08:41:17;;;;;;;22.67;5.40;;;;;;;28.58;53.07;97601.22;5054553;28;20168;-53
2022/09/16 08:44:19;;;;;;;17.27;4.63;;;;;;;28.66;52.42;97587.53;5055017;28;20173;-53
2022/09/16 08:46:58;;;;;;;17.23;4.72;;;;;;;28.72;52.14;97589.25;5053806;28;20180;-53
2022/09/16 08:49:43;;;;;;;13.52;4.57;;;;;;;28.81;51.34;97579.81;5054860;28;20165;-53
2022/09/16 08:52:17;;;;;;;18.38;4.85;;;;;;;28.83;51.59;97577.72;5054574;28;20193;-53
2022/09/16 08:54:49;;;;;;;21.75;4.25;;;;;;;28.89;51.96;97574.09;5054371;28;20234;-53
2022/09/16 08:57:20;;;;;;;18.13;4.63;;;;;;;28.98;51.46;97572.66;5054426;28;20161;-53
2022/09/16 08:59:52;;;;;;;25.40;4.40;;;;;;;29.01;50.99;97574.88;5054446;28;20173;-53
2022/09/16 09:02:36;;;;;;;14.05;4.55;;;;;;;29.11;50.64;97567.06;5054451;28;20165;-53
2022/09/16 09:05:05;;;;;;;10.27;4.05;;;;;;;29.18;50.31;97566.88;5053314;28;20200;-53
2022/09/16 09:07:39;;;;;;;15.15;3.88;;;;;;;29.33;49.97;97569.78;5054305;28;20204;-53
2022/09/16 09:10:18;;;;;;;20.90;4.13;;;;;;;29.48;50.22;97562.00;5054140;28;20221;-53
2022/09/16 09:13:12;;;;;;;16.83;3.88;;;;;;;29.55;50.18;97563.47;5054213;28;20200;-54
2022/09/16 09:15:38;;;;;;;19.02;4.88;;;;;;;29.58;49.94;97562.19;5053716;28;20193;-53
2022/09/16 09:18:15;;;;;;;14.45;6.78;;;;;;;29.54;49.33;97564.53;5053928;28;20180;-54
2022/09/16 09:20:54;;;;;;;19.17;5.55;;;;;;;29.54;49.76;97564.53;5053871;28;20180;-54
2022/09/16 09:23:43;;;;;;;21.63;5.90;;;;;;;29.51;50.53;97567.63;5053811;28;20215;-53
2022/09/16 09:26:08;;;;;;;17.98;5.82;;;;;;;29.55;50.56;97562.69;5053998;28;20648;-54
2022/09/16 09:28:58;;;;;;;17.13;4.68;;;;;;;29.53;49.95;97560.25;5053668;28;20185;-53
2022/09/16 09:31:32;;;;;;;14.82;4.28;;;;;;;29.65;50.69;97562.81;5053618;28;20189;-52
2022/09/16 09:34:15;;;;;;;14.73;5.90;;;;;;;29.69;51.24;97562.09;5053782;28;20235;-52
2022/09/16 09:37:13;;;;;;;11.63;5.03;;;;;;;29.81;50.76;97552.13;5053695;28;20165;-53
2022/09/16 09:39:53;;;;;;;16.10;4.07;;;;;;;30.03;50.94;97552.91;5053452;28;20231;-53
2022/09/16 09:42:39;;;;;;;13.52;4.20;;;;;;;30.22;49.25;97548.09;5053747;28;20171;-53
2022/09/16 09:45:13;;;;;;;11.50;3.70;;;;;;;30.35;47.99;97543.19;5051780;28;20177;-53
2022/09/16 09:47:46;;;;;;;9.77;3.65;;;;;;;30.51;48.26;97542.28;5051945;28;20203;-53
2022/09/16 10:20:35;;;;;;;9.65;3.47;;;;;;;31.62;40.02;97526.13;5129283;27;20335;-57
2022/09/16 10:23:08;;;;;;;15.10;4.03;;;;;;;31.73;39.76;97525.13;5130165;27;20177;-57
2022/09/16 10:25:34;;;;;;;8.25;3.40;;;;;;;31.86;39.68;97524.66;5127624;27;20209;-57
2022/09/16 10:28:04;;;;;;;11.88;3.80;;;;;;;32.00;39.24;97519.63;5129706;27;20723;-57
2022/09/16 10:30:41;;;;;;;12.18;3.40;;;;;;;32.08;39.24;97517.25;5128725;27;20659;-57
2022/09/16 10:33:16;;;;;;;14.10;4.10;;;;;;;32.23;37.90;97519.97;5130131;27;20178;-58
2022/09/16 10:36:01;;;;;;;10.95;3.60;;;;;;;32.29;37.18;97513.56;5130039;27;20154;-57
2022/09/16 10:38:36;;;;;;;12.32;3.38;;;;;;;32.47;37.47;97510.41;5130224;27;20159;-56
2022/09/16 10:41:09;;;;;;;12.85;3.60;;;;;;;32.53;37.14;97506.66;5129991;27;20150;-58
2022/09/16 10:43:37;;;;;;;14.57;3.33;;;;;;;32.69;37.36;97505.59;5129838;27;20662;-57
2022/09/16 10:46:04;;;;;;;14.05;3.55;;;;;;;32.83;36.32;97503.25;5129730;27;20171;-56
2022/09/16 10:48:30;;;;;;;16.13;3.78;;;;;;;32.98;36.38;97501.34;5129649;27;20271;-56
2022/09/16 10:51:01;;;;;;;15.10;3.58;;;;;;;33.06;35.66;97506.16;5129689;27;20170;-57
2022/09/16 10:53:37;;;;;;;13.65;3.35;;;;;;;33.14;36.65;97496.78;5129945;27;20631;-58
2022/09/16 10:56:18;;;;;;;11.82;3.40;;;;;;;33.26;35.98;97510.72;5129924;27;20687;-58
2022/09/16 10:58:43;;;;;;;11.73;3.40;;;;;;;33.36;36.43;97503.50;5129569;27;20155;-57
2022/09/16 11:01:12;;;;;;;14.35;3.38;;;;;;;33.38;36.61;97501.34;5129780;27;20261;-57
2022/09/16 11:04:04;;;;;;;9.88;3.05;;;;;;;33.50;36.98;97495.66;5129501;28;20174;-57
2022/09/16 11:06:50;;;;;;;12.52;3.25;;;;;;;33.56;35.75;97503.44;5129701;27;20590;-57
2022/09/16 11:09:28;;;;;;;9.15;3.03;;;;;;;33.71;35.41;97494.53;5129347;28;20189;-57
2022/09/16 11:12:17;;;;;;;13.15;3.42;;;;;;;33.80;35.47;97482.97;5113837;28;20270;-57
2022/09/16 11:15:13;;;;;;;14.85;3.22;;;;;;;33.84;34.42;97484.06;5108960;28;20518;-57
2022/09/16 11:17:53;;;;;;;14.88;2.88;;;;;;;33.74;35.58;97494.78;5108705;28;20695;-58
2022/09/16 11:20:37;;;;;;;17.38;3.42;;;;;;;33.87;35.43;97488.84;5101245;28;20608;-58
2022/09/16 11:23:29;;;;;;;12.18;3.30;;;;;;;33.94;34.74;97478.66;5095167;28;20164;-57
2022/09/16 11:25:55;;;;;;;16.50;3.38;;;;;;;33.81;34.77;97473.84;5095113;28;20164;-57
2022/09/16 11:28:52;;;;;;;12.13;3.42;;;;;;;33.82;34.19;97470.09;5094851;28;20203;-57
2022/09/16 11:31:32;;;;;;;14.98;3.83;;;;;;;33.85;34.40;97474.91;5073911;28;20188;-57
2022/09/16 11:34:13;;;;;;;16.25;3.40;;;;;;;33.95;34.40;97472.19;5095123;28;20231;-57
2022/09/16 11:37:05;;;;;;;11.02;2.80;;;;;;;34.10;34.11;97466.72;5094774;28;20252;-57
2022/09/16 11:39:45;;;;;;;11.40;3.30;;;;;;;34.04;34.74;97470.53;5095096;28;20179;-58
2022/09/16 11:42:32;;;;;;;16.58;3.80;;;;;;;33.92;34.42;97459.31;5094799;28;20188;-57
2022/09/16 11:45:19;;;;;;;11.63;3.53;;;;;;;33.74;35.09;97445.69;5094742;28;20163;-58
2022/09/16 11:47:47;;;;;;;11.82;3.20;;;;;;;33.59;35.72;97446.56;5094462;28;20167;-58
2022/09/16 11:50:53;;;;;;;12.20;3.55;;;;;;;33.39;36.64;97437.78;5094517;28;20168;-58
2022/09/16 11:53:19;;;;;;;13.35;3.75;;;;;;;33.20;36.59;97450.94;5094406;28;20156;-57
2022/09/16 11:55:55;;;;;;;9.85;3.05;;;;;;;33.01;35.42;97441.84;5094389;28;20172;-57
2022/09/16 11:58:50;;;;;;;11.73;3.70;;;;;;;32.91;36.42;97441.03;5094390;28;20163;-57
2022/09/16 12:01:31;;;;;;;16.73;4.10;;;;;;;32.78;37.03;97422.84;5066760;28;20234;-57
2022/09/16 12:04:32;;;;;;;10.65;3.05;;;;;;;32.71;37.82;97423.06;5094320;28;20235;-57
2022/09/16 12:07:03;;;;;;;9.40;3.47;;;;;;;32.56;37.37;97417.72;5085827;28;20179;-57
2022/09/16 12:09:53;;;;;;;9.70;4.28;;;;;;;32.43;38.17;97426.31;5094376;28;20275;-57
2022/09/16 12:12:23;;;;;;;13.95;3.20;;;;;;;32.37;37.47;97430.06;5064392;28;20234;-58
2022/09/16 12:14:58;;;;;;;9.85;3.10;;;;;;;32.29;37.60;97441.28;5094078;28;20531;-57
2022/09/16 12:17:28;;;;;;;13.70;3.22;;;;;;;32.24;40.09;97430.56;5094004;28;20160;-57
2022/09/16 12:20:20;;;;;;;18.10;3.78;;;;;;;32.04;42.38;97419.78;5093757;28;20623;-59
2022/09/16 12:22:50;;;;;;;11.52;3.33;;;;;;;31.91;43.76;97420.28;5093966;28;20171;-57